createdAt,value
2019-05-14T00:00:14.313Z,0.0000
2019-05-14T00:01:17.244Z,0.0000
2019-05-14T00:02:21.402Z,0.0000
2019-05-14T00:03:24.292Z,0.0000
2019-05-14T00:04:27.332Z,0.0000
2019-05-14T00:05:32.196Z,0.0000
2019-05-14T00:06:34.287Z,0.0000
2019-05-14T00:07:37.303Z,0.0000
2019-05-14T00:08:41.804Z,0.0000
2019-05-14T00:09:45.343Z,0.0000
2019-05-14T00:10:48.262Z,0.0000
2019-05-14T00:11:51.412Z,0.0000
2019-05-14T00:12:54.270Z,0.0000
2019-05-14T00:13:57.309Z,0.0000
2019-05-14T00:15:02.134Z,0.0000
2019-05-14T00:16:05.308Z,0.0000
2019-05-14T00:17:08.307Z,0.0000
2019-05-14T00:18:11.727Z,0.0000
2019-05-14T00:19:15.304Z,0.0000
2019-05-14T00:20:18.329Z,0.0000
2019-05-14T00:21:21.295Z,0.0000
2019-05-14T00:22:24.274Z,0.0000
2019-05-14T00:23:27.297Z,0.0000
2019-05-14T00:24:32.254Z,0.0000
2019-05-14T00:25:35.342Z,0.0000
2019-05-14T00:26:39.342Z,0.0000
2019-05-14T00:27:42.294Z,0.0000
2019-05-14T00:28:45.288Z,0.0000
2019-05-14T00:29:48.317Z,0.0000
2019-05-14T00:30:52.379Z,0.0000
2019-05-14T00:31:55.286Z,0.0000
2019-05-14T00:32:58.354Z,0.0000
2019-05-14T00:34:01.734Z,0.0000
2019-05-14T00:35:05.319Z,0.0000
2019-05-14T00:36:08.274Z,0.0000
2019-05-14T00:37:11.684Z,0.0000
2019-05-14T00:38:14.293Z,0.0000
2019-05-14T00:39:16.340Z,0.0000
2019-05-14T00:40:19.351Z,0.0000
2019-05-14T00:41:23.342Z,0.0000
2019-05-14T00:42:26.325Z,0.0000
2019-05-14T00:43:29.290Z,0.0000
2019-05-14T00:44:32.558Z,0.0000
2019-05-14T00:45:35.347Z,0.0000
2019-05-14T00:46:38.319Z,0.0000
2019-05-14T00:47:41.917Z,0.0000
2019-05-14T00:48:45.261Z,0.0000
2019-05-14T00:49:48.354Z,0.0000
2019-05-14T00:50:51.778Z,0.0000
2019-05-14T00:51:55.295Z,0.0000
2019-05-14T00:52:58.303Z,0.0000
2019-05-14T00:54:01.701Z,0.0000
2019-05-14T00:55:05.274Z,0.0000
2019-05-14T00:56:08.356Z,0.0000
2019-05-14T00:57:11.836Z,0.0000
2019-05-14T00:58:16.285Z,0.0000
2019-05-14T00:59:21.520Z,0.0000
2019-05-14T01:00:23.274Z,0.0000
2019-05-14T01:01:26.344Z,0.0000
2019-05-14T01:02:29.271Z,0.0000
2019-05-14T01:03:32.610Z,0.0000
2019-05-14T01:04:35.278Z,0.0000
2019-05-14T01:05:38.283Z,0.0000
2019-05-14T01:06:42.033Z,0.0000
2019-05-14T01:07:45.317Z,0.0000
2019-05-14T01:08:47.348Z,0.0000
2019-05-14T01:09:52.397Z,0.0000
2019-05-14T01:10:55.329Z,0.0000
2019-05-14T01:11:58.301Z,0.0000
2019-05-14T01:13:01.437Z,0.0000
2019-05-14T01:14:04.308Z,0.0000
2019-05-14T01:15:10.745Z,0.0000
2019-05-14T01:16:15.327Z,0.0000
2019-05-14T01:17:18.330Z,0.0000
2019-05-14T01:18:21.888Z,0.0000
2019-05-14T01:19:25.293Z,0.0000
2019-05-14T01:20:27.328Z,0.0000
2019-05-14T01:21:31.218Z,0.0000
2019-05-14T01:22:34.307Z,0.0000
2019-05-14T01:23:37.307Z,0.0000
2019-05-14T01:24:41.719Z,0.0000
2019-05-14T01:25:47.317Z,0.0000
2019-05-14T01:26:52.250Z,0.0000
2019-05-14T01:27:55.291Z,0.0000
2019-05-14T01:28:58.277Z,0.0000
2019-05-14T01:30:02.039Z,0.0000
2019-05-14T01:31:05.296Z,0.0000
2019-05-14T01:32:08.332Z,0.0000
2019-05-14T01:33:11.874Z,0.0000
2019-05-14T01:34:15.318Z,0.0000
2019-05-14T01:35:18.278Z,0.0000
2019-05-14T01:36:21.577Z,0.0000
2019-05-14T01:37:24.278Z,0.0000
2019-05-14T01:38:27.323Z,0.0000
2019-05-14T01:39:32.093Z,0.0000
2019-05-14T01:40:35.279Z,0.0000
2019-05-14T01:41:38.325Z,0.0000
2019-05-14T01:42:41.741Z,0.0000
2019-05-14T01:43:45.299Z,0.0000
2019-05-14T01:44:48.278Z,0.0000
2019-05-14T01:45:52.454Z,0.0000
2019-05-14T01:46:55.261Z,0.0000
2019-05-14T01:47:58.307Z,0.0000
2019-05-14T01:49:01.659Z,0.0000
2019-05-14T01:50:04.286Z,0.0000
2019-05-14T01:51:07.338Z,0.0000
2019-05-14T01:52:11.277Z,0.0000
2019-05-14T01:53:14.318Z,0.0000
2019-05-14T01:54:17.284Z,0.0000
2019-05-14T01:55:21.905Z,0.0000
2019-05-14T01:56:25.316Z,0.0000
2019-05-14T01:57:28.317Z,0.0000
2019-05-14T01:58:31.358Z,0.0000
2019-05-14T01:59:34.293Z,0.0000
2019-05-14T02:00:37.318Z,0.0000
2019-05-14T02:01:41.503Z,0.0000
2019-05-14T02:02:44.314Z,0.0000
2019-05-14T02:03:47.274Z,0.0000
2019-05-14T02:04:51.330Z,0.0000
2019-05-14T02:05:54.304Z,0.0000
2019-05-14T02:06:57.328Z,0.0000
2019-05-14T02:08:01.714Z,0.0000
2019-05-14T02:09:05.290Z,0.0000
2019-05-14T02:10:08.296Z,0.0000
2019-05-14T02:11:12.121Z,0.0000
2019-05-14T02:12:15.381Z,0.0000
2019-05-14T02:13:18.268Z,0.0000
2019-05-14T02:14:22.030Z,0.0000
2019-05-14T02:15:36.305Z,0.0000
2019-05-14T02:16:33.279Z,0.0000
2019-05-14T02:17:36.281Z,0.0000
2019-05-14T02:18:41.457Z,0.0000
2019-05-14T02:19:44.274Z,0.0000
2019-05-14T02:20:47.275Z,0.0000
2019-05-14T02:21:51.436Z,0.0000
2019-05-14T02:22:54.259Z,0.0000
2019-05-14T02:23:56.311Z,0.0000
2019-05-14T02:24:59.264Z,0.0000
2019-05-14T02:26:02.690Z,0.0000
2019-05-14T02:27:06.315Z,0.0000
2019-05-14T02:28:11.414Z,0.0000
2019-05-14T02:29:14.284Z,0.0000
2019-05-14T02:30:20.282Z,0.0000
2019-05-14T02:31:25.288Z,0.0000
2019-05-14T02:32:29.753Z,0.0000
2019-05-14T02:33:33.310Z,0.0000
2019-05-14T02:34:39.459Z,0.0000
2019-05-14T02:35:43.323Z,0.0000
2019-05-14T02:36:49.425Z,0.0000
2019-05-14T02:37:52.337Z,0.0000
2019-05-14T02:38:55.291Z,0.0000
2019-05-14T02:39:59.667Z,0.0000
2019-05-14T02:41:03.317Z,0.0000
2019-05-14T02:42:09.570Z,0.0000
2019-05-14T02:43:13.313Z,0.0000
2019-05-14T02:44:18.881Z,0.0000
2019-05-14T02:45:21.272Z,0.0000
2019-05-14T02:46:24.339Z,0.0000
2019-05-14T02:47:29.885Z,0.0000
2019-05-14T02:48:33.401Z,0.0000
2019-05-14T02:49:39.340Z,0.0000
2019-05-14T02:50:43.285Z,0.0000
2019-05-14T02:51:50.070Z,0.0000
2019-05-14T02:52:53.348Z,0.0000
2019-05-14T02:53:58.919Z,0.0000
2019-05-14T02:55:02.297Z,0.0000
2019-05-14T02:56:05.313Z,0.0000
2019-05-14T02:57:10.378Z,0.0000
2019-05-14T02:58:14.329Z,0.0000
2019-05-14T02:59:19.599Z,0.0000
2019-05-14T03:00:23.305Z,0.0000
2019-05-14T03:01:26.285Z,0.0000
2019-05-14T03:02:29.808Z,0.0000
2019-05-14T03:03:33.302Z,0.0000
2019-05-14T03:04:39.181Z,0.0000
2019-05-14T03:05:42.300Z,0.0000
2019-05-14T03:06:45.317Z,0.0000
2019-05-14T03:07:49.989Z,0.0000
2019-05-14T03:08:53.343Z,0.0000
2019-05-14T03:09:59.194Z,0.0000
2019-05-14T03:11:01.330Z,0.0000
2019-05-14T03:12:04.291Z,0.0000
2019-05-14T03:13:09.493Z,0.0000
2019-05-14T03:14:12.319Z,0.0000
2019-05-14T03:15:15.308Z,0.0000
2019-05-14T03:16:26.036Z,0.0000
2019-05-14T03:17:29.768Z,0.0000
2019-05-14T03:18:33.370Z,0.0000
2019-05-14T03:19:36.275Z,0.0000
2019-05-14T03:20:39.019Z,0.0000
2019-05-14T03:21:42.303Z,0.0000
2019-05-14T03:23:01.365Z,0.0000
2019-05-14T03:23:53.326Z,0.0000
2019-05-14T03:24:59.621Z,0.0000
2019-05-14T03:26:03.312Z,0.0000
2019-05-14T03:27:09.322Z,0.0000
2019-05-14T03:28:13.327Z,0.0000
2019-05-14T03:29:19.351Z,0.0000
2019-05-14T03:30:23.498Z,0.0000
2019-05-14T03:31:32.255Z,0.0000
2019-05-14T03:32:34.297Z,0.0000
2019-05-14T03:33:43.010Z,0.0000
2019-05-14T03:34:45.305Z,0.0000
2019-05-14T03:35:56.360Z,0.0000
2019-05-14T03:37:02.367Z,0.0000
2019-05-14T03:38:04.315Z,0.0000
2019-05-14T03:39:10.251Z,0.0000
2019-05-14T03:40:13.297Z,0.0000
2019-05-14T03:41:19.429Z,0.0000
2019-05-14T03:42:22.271Z,0.0000
2019-05-14T03:43:25.332Z,0.0000
2019-05-14T03:44:29.112Z,5.6250
2019-05-14T03:45:32.339Z,5.6250
2019-05-14T03:46:45.678Z,5.6250
2019-05-14T03:47:43.309Z,5.6250
2019-05-14T03:48:49.038Z,5.6250
2019-05-14T03:49:52.284Z,5.6250
2019-05-14T03:50:55.313Z,11.2500
2019-05-14T03:52:00.452Z,11.2500
2019-05-14T03:53:03.318Z,11.2500
2019-05-14T03:54:11.390Z,11.2500
2019-05-14T03:55:14.281Z,11.2500
2019-05-14T03:56:19.237Z,16.8750
2019-05-14T03:57:22.286Z,16.8750
2019-05-14T03:58:25.298Z,16.8750
2019-05-14T03:59:29.307Z,16.8750
2019-05-14T04:00:32.290Z,22.5000
2019-05-14T04:01:35.275Z,22.5000
2019-05-14T04:02:39.116Z,22.5000
2019-05-14T04:03:42.313Z,28.1250
2019-05-14T04:04:45.308Z,28.1250
2019-05-14T04:05:49.382Z,28.1250
2019-05-14T04:06:52.305Z,28.1250
2019-05-14T04:07:55.307Z,33.7500
2019-05-14T04:09:00.626Z,33.7500
2019-05-14T04:10:04.287Z,33.7500
2019-05-14T04:11:09.624Z,39.3750
2019-05-14T04:12:13.297Z,39.3750
2019-05-14T04:13:19.585Z,39.3750
2019-05-14T04:14:23.296Z,45.0000
2019-05-14T04:15:29.643Z,45.0000
2019-05-14T04:16:33.332Z,45.0000
2019-05-14T04:17:38.783Z,50.6250
2019-05-14T04:18:44.326Z,50.6250
2019-05-14T04:19:49.270Z,50.6250
2019-05-14T04:20:52.300Z,56.2500
2019-05-14T04:21:55.313Z,56.2500
2019-05-14T04:23:00.006Z,56.2500
2019-05-14T04:24:03.330Z,61.8750
2019-05-14T04:25:06.300Z,61.8750
2019-05-14T04:26:09.584Z,61.8750
2019-05-14T04:27:13.126Z,67.5000
2019-05-14T04:28:19.288Z,67.5000
2019-05-14T04:29:22.291Z,67.5000
2019-05-14T04:30:25.327Z,73.1250
2019-05-14T04:31:29.831Z,73.1250
2019-05-14T04:32:33.413Z,73.1250
2019-05-14T04:33:39.051Z,78.7500
2019-05-14T04:34:41.305Z,78.7500
2019-05-14T04:35:44.274Z,78.7500
2019-05-14T04:36:50.076Z,84.3750
2019-05-14T04:37:53.287Z,84.3750
2019-05-14T04:38:56.299Z,84.3750
2019-05-14T04:39:59.470Z,90.0000
2019-05-14T04:41:02.312Z,90.0000
2019-05-14T04:42:05.310Z,90.0000
2019-05-14T04:43:10.153Z,90.0000
2019-05-14T04:44:13.331Z,95.6250
2019-05-14T04:45:19.414Z,95.6250
2019-05-14T04:46:22.289Z,95.6250
2019-05-14T04:47:31.862Z,101.2500
2019-05-14T04:48:37.596Z,101.2500
2019-05-14T04:49:41.378Z,101.2500
2019-05-14T04:50:44.292Z,101.2500
2019-05-14T04:51:50.180Z,106.8750
2019-05-14T04:52:53.281Z,106.8750
2019-05-14T04:53:59.613Z,106.8750
2019-05-14T04:55:03.324Z,106.8750
2019-05-14T04:56:08.732Z,112.5000
2019-05-14T04:57:12.296Z,112.5000
2019-05-14T04:58:15.322Z,112.5000
2019-05-14T04:59:19.135Z,118.1250
2019-05-14T05:00:22.299Z,118.1250
2019-05-14T05:01:25.359Z,118.1250
2019-05-14T05:02:30.110Z,118.1250
2019-05-14T05:03:33.286Z,123.7500
2019-05-14T05:04:36.301Z,123.7500
2019-05-14T05:05:39.531Z,123.7500
2019-05-14T05:06:42.318Z,123.7500
2019-05-14T05:07:45.326Z,129.3750
2019-05-14T05:08:49.806Z,129.3750
2019-05-14T05:09:53.319Z,129.3750
2019-05-14T05:10:59.658Z,129.3750
2019-05-14T05:12:03.317Z,135.0000
2019-05-14T05:13:09.031Z,135.0000
2019-05-14T05:14:12.308Z,135.0000
2019-05-14T05:15:14.329Z,135.0000
2019-05-14T05:16:19.224Z,135.0000
2019-05-14T05:17:38.920Z,140.6250
2019-05-14T05:18:32.302Z,140.6250
2019-05-14T05:19:35.354Z,140.6250
2019-05-14T05:20:39.444Z,140.6250
2019-05-14T05:21:42.287Z,140.6250
2019-05-14T05:22:45.299Z,146.2500
2019-05-14T05:23:49.221Z,146.2500
2019-05-14T05:24:52.361Z,146.2500
2019-05-14T05:25:55.299Z,146.2500
2019-05-14T05:26:58.619Z,146.2500
2019-05-14T05:28:01.303Z,146.2500
2019-05-14T05:29:07.208Z,151.8750
2019-05-14T05:30:12.339Z,151.8750
2019-05-14T05:31:15.305Z,151.8750
2019-05-14T05:32:19.412Z,151.8750
2019-05-14T05:33:23.305Z,151.8750
2019-05-14T05:34:28.288Z,157.5000
2019-05-14T05:35:31.311Z,157.5000
2019-05-14T05:36:34.300Z,157.5000
2019-05-14T05:37:38.447Z,157.5000
2019-05-14T05:38:42.310Z,157.5000
2019-05-14T05:39:45.308Z,163.1250
2019-05-14T05:40:48.685Z,163.1250
2019-05-14T05:41:51.311Z,163.1250
2019-05-14T05:42:54.300Z,163.1250
2019-05-14T05:43:58.915Z,163.1250
2019-05-14T05:45:02.303Z,168.7500
2019-05-14T05:46:05.329Z,168.7500
2019-05-14T05:47:09.269Z,168.7500
2019-05-14T05:48:12.303Z,168.7500
2019-05-14T05:49:15.288Z,168.7500
2019-05-14T05:50:19.379Z,168.7500
2019-05-14T05:51:23.332Z,174.3750
2019-05-14T05:52:28.239Z,174.3750
2019-05-14T05:53:31.275Z,174.3750
2019-05-14T05:54:34.291Z,174.3750
2019-05-14T05:55:39.275Z,174.3750
2019-05-14T05:56:42.358Z,180.0000
2019-05-14T05:57:45.334Z,180.0000
2019-05-14T05:58:48.952Z,180.0000
2019-05-14T05:59:52.309Z,180.0000
2019-05-14T06:00:55.287Z,180.0000
2019-05-14T06:01:58.800Z,185.6250
2019-05-14T06:03:02.310Z,185.6250
2019-05-14T06:04:05.295Z,191.2500
2019-05-14T06:05:08.334Z,196.8750
2019-05-14T06:06:13.388Z,202.5000
2019-05-14T06:07:18.392Z,208.1250
2019-05-14T06:08:21.304Z,202.5000
2019-05-14T06:09:24.334Z,196.8750
2019-05-14T06:10:29.179Z,191.2500
2019-05-14T06:11:32.322Z,202.5000
2019-05-14T06:12:34.339Z,258.7500
2019-05-14T06:13:39.016Z,315.0000
2019-05-14T06:14:42.281Z,309.3750
2019-05-14T06:15:48.818Z,258.7500
2019-05-14T06:16:53.321Z,208.1250
2019-05-14T06:18:13.359Z,196.8750
2019-05-14T06:19:08.201Z,196.8750
2019-05-14T06:20:11.292Z,196.8750
2019-05-14T06:21:14.303Z,202.5000
2019-05-14T06:22:18.924Z,202.5000
2019-05-14T06:23:22.351Z,202.5000
2019-05-14T06:24:25.319Z,208.1250
2019-05-14T06:25:31.336Z,225.0000
2019-05-14T06:26:34.317Z,275.6250
2019-05-14T06:27:38.070Z,309.3750
2019-05-14T06:28:41.141Z,320.6250
2019-05-14T06:29:44.278Z,320.6250
2019-05-14T06:30:48.413Z,326.2500
2019-05-14T06:31:51.292Z,326.2500
2019-05-14T06:32:54.351Z,331.8750
2019-05-14T06:33:59.109Z,343.1250
2019-05-14T06:35:02.333Z,337.5000
2019-05-14T06:36:08.716Z,331.8750
2019-05-14T06:37:12.336Z,331.8750
2019-05-14T06:38:15.314Z,343.1250
2019-05-14T06:39:18.419Z,354.3750
2019-05-14T06:40:21.344Z,365.6250
2019-05-14T06:41:24.294Z,371.2500
2019-05-14T06:42:28.507Z,376.8750
2019-05-14T06:43:32.350Z,371.2500
2019-05-14T06:44:35.305Z,371.2500
2019-05-14T06:45:39.143Z,388.1250
2019-05-14T06:46:43.356Z,388.1250
2019-05-14T06:47:48.621Z,348.7500
2019-05-14T06:48:52.362Z,286.8750
2019-05-14T06:49:55.303Z,247.5000
2019-05-14T06:50:58.536Z,241.8750
2019-05-14T06:52:01.312Z,247.5000
2019-05-14T06:53:04.295Z,258.7500
2019-05-14T06:54:09.206Z,298.1250
2019-05-14T06:55:12.295Z,354.3750
2019-05-14T06:56:18.802Z,421.8750
2019-05-14T06:57:23.278Z,466.8750
2019-05-14T06:58:26.304Z,483.7500
2019-05-14T06:59:29.357Z,500.6250
2019-05-14T07:00:31.348Z,551.2500
2019-05-14T07:01:34.317Z,590.6250
2019-05-14T07:02:43.240Z,596.2500
2019-05-14T07:03:45.337Z,635.6250
2019-05-14T07:04:48.541Z,714.3750
2019-05-14T07:05:51.319Z,804.3750
2019-05-14T07:06:54.298Z,838.1250
2019-05-14T07:07:59.704Z,894.3750
2019-05-14T07:09:03.300Z,967.5000
2019-05-14T07:10:08.739Z,1074.3750
2019-05-14T07:11:12.252Z,1260.0000
2019-05-14T07:12:15.331Z,1445.6250
2019-05-14T07:13:18.939Z,1451.2500
2019-05-14T07:14:21.302Z,1305.0000
2019-05-14T07:15:24.336Z,1158.7500
2019-05-14T07:16:28.682Z,1001.2500
2019-05-14T07:17:32.302Z,888.7500
2019-05-14T07:18:46.398Z,883.1250
2019-05-14T07:19:43.351Z,714.3750
2019-05-14T07:20:48.359Z,393.7500
2019-05-14T07:21:51.314Z,264.3750
2019-05-14T07:22:54.308Z,264.3750
2019-05-14T07:23:56.317Z,275.6250
2019-05-14T07:24:59.328Z,258.7500
2019-05-14T07:26:02.292Z,253.1250
2019-05-14T07:27:05.324Z,253.1250
2019-05-14T07:28:08.860Z,253.1250
2019-05-14T07:29:12.312Z,253.1250
2019-05-14T07:30:15.323Z,253.1250
2019-05-14T07:31:18.793Z,253.1250
2019-05-14T07:32:22.284Z,253.1250
2019-05-14T07:33:25.510Z,253.1250
2019-05-14T07:34:28.440Z,258.7500
2019-05-14T07:35:31.327Z,258.7500
2019-05-14T07:36:34.339Z,258.7500
2019-05-14T07:37:39.703Z,253.1250
2019-05-14T07:38:43.327Z,258.7500
2019-05-14T07:39:48.506Z,258.7500
2019-05-14T07:40:52.343Z,258.7500
2019-05-14T07:41:55.282Z,258.7500
2019-05-14T07:42:58.430Z,258.7500
2019-05-14T07:44:01.297Z,258.7500
2019-05-14T07:45:04.300Z,258.7500
2019-05-14T07:46:08.515Z,264.3750
2019-05-14T07:47:12.319Z,258.7500
2019-05-14T07:48:15.318Z,258.7500
2019-05-14T07:49:18.567Z,258.7500
2019-05-14T07:50:21.362Z,258.7500
2019-05-14T07:51:24.303Z,258.7500
2019-05-14T07:52:28.517Z,258.7500
2019-05-14T07:53:38.793Z,264.3750
2019-05-14T07:54:40.299Z,264.3750
2019-05-14T07:55:43.360Z,264.3750
2019-05-14T07:56:49.075Z,264.3750
2019-05-14T07:57:54.294Z,264.3750
2019-05-14T07:58:58.468Z,264.3750
2019-05-14T08:00:03.328Z,264.3750
2019-05-14T08:01:06.325Z,264.3750
2019-05-14T08:02:09.517Z,264.3750
2019-05-14T08:03:12.291Z,264.3750
2019-05-14T08:04:17.217Z,264.3750
2019-05-14T08:05:22.310Z,270.0000
2019-05-14T08:06:24.388Z,270.0000
2019-05-14T08:07:28.180Z,270.0000
2019-05-14T08:08:31.291Z,270.0000
2019-05-14T08:09:34.300Z,275.6250
2019-05-14T08:10:36.328Z,275.6250
2019-05-14T08:11:38.865Z,275.6250
2019-05-14T08:12:42.325Z,281.2500
2019-05-14T08:13:45.345Z,281.2500
2019-05-14T08:15:09.032Z,281.2500
2019-05-14T08:15:55.323Z,281.2500
2019-05-14T08:16:59.554Z,281.2500
2019-05-14T08:18:03.293Z,281.2500
2019-05-14T08:19:20.885Z,281.2500
2019-05-14T08:20:14.337Z,286.8750
2019-05-14T08:21:19.351Z,292.5000
2019-05-14T08:22:23.337Z,286.8750
2019-05-14T08:23:28.207Z,286.8750
2019-05-14T08:24:31.286Z,292.5000
2019-05-14T08:25:34.315Z,292.5000
2019-05-14T08:26:38.181Z,292.5000
2019-05-14T08:27:41.367Z,286.8750
2019-05-14T08:28:44.284Z,286.8750
2019-05-14T08:29:48.703Z,292.5000
2019-05-14T08:30:52.302Z,298.1250
2019-05-14T08:31:55.337Z,298.1250
2019-05-14T08:32:58.419Z,320.6250
2019-05-14T08:34:04.633Z,365.6250
2019-05-14T08:35:09.082Z,348.7500
2019-05-14T08:36:12.295Z,309.3750
2019-05-14T08:37:15.292Z,298.1250
2019-05-14T08:38:18.539Z,298.1250
2019-05-14T08:39:22.258Z,292.5000
2019-05-14T08:40:25.324Z,298.1250
2019-05-14T08:41:28.780Z,309.3750
2019-05-14T08:42:34.062Z,315.0000
2019-05-14T08:43:39.791Z,320.6250
2019-05-14T08:44:47.937Z,331.8750
2019-05-14T08:45:53.312Z,348.7500
2019-05-14T08:46:58.436Z,354.3750
2019-05-14T08:48:02.317Z,382.5000
2019-05-14T08:49:05.340Z,309.3750
2019-05-14T08:50:09.116Z,405.0000
2019-05-14T08:51:12.393Z,961.8750
2019-05-14T08:52:18.969Z,365.6250
2019-05-14T08:53:22.334Z,984.3750
2019-05-14T08:54:25.335Z,933.7500
2019-05-14T08:55:29.666Z,618.7500
2019-05-14T08:56:33.305Z,731.2500
2019-05-14T08:57:38.611Z,866.2500
2019-05-14T08:58:42.323Z,1828.1250
2019-05-14T08:59:45.337Z,1507.5000
2019-05-14T09:00:48.479Z,1164.3750
2019-05-14T09:02:01.792Z,680.6250
2019-05-14T09:02:59.327Z,1108.1250
2019-05-14T09:04:02.305Z,658.1250
2019-05-14T09:05:05.502Z,534.3750
2019-05-14T09:06:10.367Z,720.0000
2019-05-14T09:07:13.341Z,1023.7500
2019-05-14T09:08:18.957Z,1029.3750
2019-05-14T09:09:22.325Z,601.8750
2019-05-14T09:10:25.366Z,1670.6250
2019-05-14T09:11:35.026Z,2486.2500
2019-05-14T09:12:38.617Z,2480.6250
2019-05-14T09:13:42.355Z,2936.2500
2019-05-14T09:14:45.324Z,2390.6250
2019-05-14T09:15:48.928Z,2615.6250
2019-05-14T09:16:52.358Z,2407.5000
2019-05-14T09:17:55.314Z,2598.7500
2019-05-14T09:18:58.278Z,2503.1250
2019-05-14T09:20:06.735Z,2396.2500
2019-05-14T09:21:09.296Z,2351.2500
2019-05-14T09:22:12.373Z,2221.8750
2019-05-14T09:23:15.296Z,2137.5000
2019-05-14T09:24:18.377Z,1901.2500
2019-05-14T09:25:21.292Z,1940.6250
2019-05-14T09:26:24.325Z,1586.2500
2019-05-14T09:27:29.246Z,1383.7500
2019-05-14T09:28:32.303Z,2120.6250
2019-05-14T09:29:35.335Z,2115.0000
2019-05-14T09:30:38.333Z,2041.8750
2019-05-14T09:31:41.342Z,2030.6250
2019-05-14T09:32:44.354Z,1996.8750
2019-05-14T09:33:49.480Z,1985.6250
2019-05-14T09:34:52.322Z,1974.3750
2019-05-14T09:36:09.554Z,1974.3750
2019-05-14T09:37:03.354Z,1991.2500
2019-05-14T09:38:08.510Z,2227.5000
2019-05-14T09:39:12.257Z,3082.5000
2019-05-14T09:40:14.381Z,4275.0000
2019-05-14T09:41:18.549Z,483.7500
2019-05-14T09:42:21.286Z,2250.0000
2019-05-14T09:43:24.346Z,838.1250
2019-05-14T09:44:29.317Z,4803.7500
2019-05-14T09:45:32.319Z,4820.6250
2019-05-14T09:46:35.351Z,4865.6250
2019-05-14T09:47:38.736Z,4843.1250
2019-05-14T09:48:42.279Z,4826.2500
2019-05-14T09:49:45.310Z,4871.2500
2019-05-14T09:50:48.977Z,4635.0000
2019-05-14T09:51:52.318Z,4983.7500
2019-05-14T09:52:55.336Z,5051.2500
2019-05-14T09:53:58.926Z,4663.1250
2019-05-14T09:55:02.339Z,4950.0000
2019-05-14T09:56:05.359Z,5000.6250
2019-05-14T09:57:08.495Z,5101.8750
2019-05-14T09:58:11.311Z,5355.0000
2019-05-14T09:59:14.316Z,1406.2500
2019-05-14T10:00:18.683Z,5085.0000
2019-05-14T10:01:22.355Z,5096.2500
2019-05-14T10:02:25.316Z,5169.3750
2019-05-14T10:03:27.312Z,675.0000
2019-05-14T10:04:30.361Z,4871.2500
2019-05-14T10:05:33.274Z,4854.3750
2019-05-14T10:06:39.015Z,4955.6250
2019-05-14T10:07:42.291Z,4893.7500
2019-05-14T10:08:45.321Z,4719.3750
2019-05-14T10:09:49.184Z,4753.1250
2019-05-14T10:10:52.310Z,5045.6250
2019-05-14T10:11:55.337Z,5169.3750
2019-05-14T10:13:01.350Z,5265.0000
2019-05-14T10:14:05.328Z,5298.7500
2019-05-14T10:15:08.843Z,3673.1250
2019-05-14T10:16:12.320Z,5208.7500
2019-05-14T10:17:15.358Z,4989.3750
2019-05-14T10:18:19.039Z,5079.3750
2019-05-14T10:19:22.314Z,4843.1250
2019-05-14T10:20:40.238Z,4820.6250
2019-05-14T10:21:33.311Z,4781.2500
2019-05-14T10:22:36.369Z,4966.8750
2019-05-14T10:23:39.280Z,4528.1250
2019-05-14T10:24:42.317Z,4207.5000
2019-05-14T10:25:45.346Z,4533.7500
2019-05-14T10:26:49.156Z,5090.6250
2019-05-14T10:27:52.367Z,2176.8750
2019-05-14T10:28:54.307Z,1119.3750
2019-05-14T10:29:58.859Z,1074.3750
2019-05-14T10:31:03.808Z,5310.0000
2019-05-14T10:32:08.737Z,4781.2500
2019-05-14T10:33:15.082Z,1198.1250
2019-05-14T10:34:19.228Z,1164.3750
2019-05-14T10:35:22.301Z,1063.1250
2019-05-14T10:36:25.283Z,1040.6250
2019-05-14T10:37:28.792Z,4944.3750
2019-05-14T10:38:32.329Z,4843.1250
2019-05-14T10:39:35.352Z,3228.7500
2019-05-14T10:40:38.701Z,4961.2500
2019-05-14T10:41:42.335Z,4938.7500
2019-05-14T10:42:44.358Z,3746.2500
2019-05-14T10:43:49.736Z,5265.0000
2019-05-14T10:44:53.285Z,5068.1250
2019-05-14T10:45:58.001Z,5085.0000
2019-05-14T10:47:01.322Z,1113.7500
2019-05-14T10:48:04.351Z,4511.2500
2019-05-14T10:49:19.996Z,5146.8750
2019-05-14T10:50:15.331Z,5124.3750
2019-05-14T10:51:18.354Z,5118.7500
2019-05-14T10:52:23.313Z,1102.5000
2019-05-14T10:53:25.377Z,3661.8750
2019-05-14T10:54:29.268Z,1096.8750
2019-05-14T10:55:32.317Z,984.3750
2019-05-14T10:56:35.278Z,3706.8750
2019-05-14T10:57:38.305Z,4961.2500
2019-05-14T10:58:41.348Z,4933.1250
2019-05-14T10:59:44.300Z,5006.2500
2019-05-14T11:00:49.309Z,5220.0000
2019-05-14T11:01:54.352Z,5203.1250
2019-05-14T11:02:57.329Z,5169.3750
2019-05-14T11:04:00.314Z,4927.5000
2019-05-14T11:05:03.301Z,4995.0000
2019-05-14T11:06:06.333Z,5355.0000
2019-05-14T11:07:09.314Z,4387.5000
2019-05-14T11:08:12.314Z,1203.7500
2019-05-14T11:09:15.304Z,1068.7500
2019-05-14T11:10:19.523Z,990.0000
2019-05-14T11:11:22.286Z,911.2500
2019-05-14T11:12:25.357Z,928.1250
2019-05-14T11:13:29.242Z,1141.8750
2019-05-14T11:14:32.362Z,2891.2500
2019-05-14T11:15:35.336Z,5433.7500
2019-05-14T11:16:41.790Z,5383.1250
2019-05-14T11:17:45.267Z,1546.8750
2019-05-14T11:18:49.744Z,1580.6250
2019-05-14T11:19:53.361Z,3993.7500
2019-05-14T11:21:16.171Z,2593.1250
2019-05-14T11:22:04.318Z,5450.6250
2019-05-14T11:23:08.979Z,4230.0000
2019-05-14T11:24:12.329Z,1423.1250
2019-05-14T11:25:15.313Z,1226.2500
2019-05-14T11:26:18.427Z,1130.6250
2019-05-14T11:27:22.297Z,5439.3750
2019-05-14T11:28:25.267Z,4291.8750
2019-05-14T11:29:29.580Z,3808.1250
2019-05-14T11:30:33.315Z,1338.7500
2019-05-14T11:31:38.872Z,1198.1250
2019-05-14T11:32:42.321Z,2581.8750
2019-05-14T11:33:45.306Z,5428.1250
2019-05-14T11:34:48.341Z,1254.3750
2019-05-14T11:35:51.306Z,2998.1250
2019-05-14T11:36:54.324Z,1209.3750
2019-05-14T11:37:58.866Z,5298.7500
2019-05-14T11:39:04.018Z,4798.1250
2019-05-14T11:40:08.743Z,5484.3750
2019-05-14T11:41:12.337Z,1558.1250
2019-05-14T11:42:15.306Z,4033.1250
2019-05-14T11:43:18.341Z,5596.8750
2019-05-14T11:44:21.301Z,5658.7500
2019-05-14T11:45:23.305Z,1479.3750
2019-05-14T11:46:39.977Z,1417.5000
2019-05-14T11:47:34.319Z,1417.5000
2019-05-14T11:48:38.948Z,1366.8750
2019-05-14T11:49:42.349Z,1344.3750
2019-05-14T11:50:45.324Z,1395.0000
2019-05-14T11:52:00.722Z,1586.2500
2019-05-14T11:52:58.331Z,1603.1250
2019-05-14T11:54:01.285Z,1243.1250
2019-05-14T11:55:04.334Z,995.6250
2019-05-14T11:56:08.629Z,1513.1250
2019-05-14T11:57:12.307Z,1243.1250
2019-05-14T11:58:15.379Z,1113.7500
2019-05-14T11:59:18.969Z,1080.0000
2019-05-14T12:00:25.719Z,1113.7500
2019-05-14T12:01:29.787Z,1141.8750
2019-05-14T12:02:33.267Z,1288.1250
2019-05-14T12:03:39.043Z,1417.5000
2019-05-14T12:04:42.317Z,1338.7500
2019-05-14T12:05:45.279Z,1102.5000
2019-05-14T12:06:48.288Z,990.0000
2019-05-14T12:07:51.290Z,928.1250
2019-05-14T12:08:54.298Z,916.8750
2019-05-14T12:09:57.346Z,888.7500
2019-05-14T12:11:00.332Z,877.5000
2019-05-14T12:12:03.279Z,1001.2500
2019-05-14T12:13:08.402Z,1136.2500
2019-05-14T12:14:12.340Z,922.5000
2019-05-14T12:15:15.297Z,843.7500
2019-05-14T12:16:18.328Z,1018.1250
2019-05-14T12:17:21.388Z,1479.3750
2019-05-14T12:18:24.298Z,1535.6250
2019-05-14T12:19:28.371Z,1445.6250
2019-05-14T12:20:31.352Z,1580.6250
2019-05-14T12:21:34.308Z,4933.1250
2019-05-14T12:22:39.356Z,843.7500
2019-05-14T12:23:42.323Z,877.5000
2019-05-14T12:24:45.336Z,1023.7500
2019-05-14T12:25:49.063Z,5180.6250
2019-05-14T12:26:52.290Z,4978.1250
2019-05-14T12:27:55.309Z,4477.5000
2019-05-14T12:28:59.409Z,4516.8750
2019-05-14T12:30:01.338Z,4663.1250
2019-05-14T12:31:04.303Z,5310.0000
2019-05-14T12:32:12.804Z,2013.7500
2019-05-14T12:33:15.311Z,1558.1250
2019-05-14T12:34:18.595Z,1372.5000
2019-05-14T12:35:21.316Z,1276.8750
2019-05-14T12:36:24.308Z,1153.1250
2019-05-14T12:37:28.941Z,1136.2500
2019-05-14T12:38:32.266Z,1170.0000